Froeybanken — LJML — position and weather

sailwx.info

Track history (hours):
 
Tides and Currents Weather Stations Pressure Air Temp Water Temp Dewpoint Dewpoint Depression Visibility Wind Speed Wind Dir Waves Ship Positions

Froeybanken

Last reported at 2018-Feb-04 21:29 UTC. Time now 2018-Feb-22 09:28 UTC.
Position N 69°54' E 019°58'.
Warning: this ship's position is 17 days out of date.

; draft 3.6 m.

Type: Fishing. MMSI: 257470500.

Date/timePositionNaut miles runAvg speedWind from/ knotsBaromVisibWave heightAir tempDewpointWater temp
2018-Feb-04 21:29N 69°54' E 019°58'13 7.2
2018-Feb-04 19:37N 70°01' E 020°32'2 7.5
2018-Feb-04 19:22N 70°02' E 020°37'5 7.9
2018-Feb-04 18:44N 70°03' E 020°51'40 7.2
2018-Feb-04 13:07N 70°34' E 022°09'1 7.5
2018-Feb-04 12:59N 70°35' E 022°11'1 0.6
2018-Feb-04 11:32N 70°35' E 022°12'2 8.4
2018-Feb-04 11:16N 70°34' E 022°06'7 5.4
2018-Feb-04 10:00N 70°39' E 021°51'4 3.5
2018-Feb-04 09:00N 70°42' E 021°44'0 0.7
2018-Feb-04 08:30N 70°42' E 021°45'1 1.1
2018-Feb-04 08:00N 70°43' E 021°46'2 3.9
2018-Feb-04 07:30N 70°44' E 021°51'3 5.5
2018-Feb-04 07:00N 70°46' E 021°56'0 0.5
2018-Feb-04 06:30N 70°46' E 021°56'1 2.4
2018-Feb-04 06:01N 70°47' E 021°59'0 0.7
2018-Feb-04 05:30N 70°47' E 021°59'0 0.4
2018-Feb-04 05:00N 70°47' E 021°60'0 0.7
2018-Feb-04 04:30N 70°47' E 022°01'6 5.4
2018-Feb-04 03:24N 70°41' E 021°56'3 8.0
2018-Feb-04 03:00N 70°38' E 021°55'1 1.1
2018-Feb-04 01:47N 70°38' E 021°59'0 0.0
2018-Feb-04 01:24N 70°38' E 021°59'0 0.0
2018-Feb-04 00:06N 70°38' E 021°59'0 0.0
2018-Feb-03 23:59N 70°38' E 021°59'0 0.0
2018-Feb-03 23:29N 70°38' E 021°59'0 0.0
2018-Feb-03 19:31N 70°38' E 021°59'0 0.0
2018-Feb-03 17:42N 70°38' E 021°59'0 0.0
2018-Feb-03 17:30N 70°38' E 021°59'0 0.0
2018-Feb-03 16:58N 70°38' E 021°59'5 4.6
2018-Feb-03 15:57N 70°35' E 022°10'2 1.7
2018-Feb-03 14:36N 70°35' E 022°17'0 0.0
2018-Feb-03 14:20N 70°35' E 022°17'8 6.3
2018-Feb-03 13:02N 70°38' E 021°53'1 6.7
2018-Feb-03 12:54N 70°38' E 021°52'3 6.8
2018-Feb-03 12:30N 70°41' E 021°47'1 2.9
2018-Feb-03 12:00N 70°42' E 021°46'0 0.7
2018-Feb-03 11:26N 70°42' E 021°45'0 0.9
2018-Feb-03 10:56N 70°42' E 021°45'1 1.0
2018-Feb-03 10:19N 70°42' E 021°43'  
2018-Jan-31 22:27N 70°38' E 021°59'0 0.0
2018-Jan-31 20:52N 70°38' E 021°59'0 0.2
2018-Jan-31 18:36N 70°38' E 021°58'1 8.1
2018-Jan-31 18:30N 70°37' E 021°58'4 6.2
2018-Jan-31 17:55N 70°35' E 022°07'2 1.3
2018-Jan-31 16:14N 70°35' E 022°14'2 8.2
2018-Jan-31 15:59N 70°35' E 022°08'  
Track history (hours):
 
Tides and Currents Weather Stations Pressure Air Temp Water Temp Dewpoint Dewpoint Depression Visibility Wind Speed Wind Dir Waves Ship Positions

Froeybanken

Last reported at 2018-Feb-04 21:29 UTC. Time now 2018-Feb-22 09:28 UTC.
Position N 69°54' E 019°58'.
Warning: this ship's position is 17 days out of date.

; draft 3.6 m.

Type: Fishing. MMSI: 257470500.

Date/timePositionNaut miles runAvg speedWind from/ knotsBaromVisibWave heightAir tempDewpointWater temp
2018-Feb-04 21:29N 69°54' E 019°58'13 7.2
2018-Feb-04 19:37N 70°01' E 020°32'2 7.5
2018-Feb-04 19:22N 70°02' E 020°37'5 7.9
2018-Feb-04 18:44N 70°03' E 020°51'40 7.2
2018-Feb-04 13:07N 70°34' E 022°09'1 7.5
2018-Feb-04 12:59N 70°35' E 022°11'1 0.6
2018-Feb-04 11:32N 70°35' E 022°12'2 8.4
2018-Feb-04 11:16N 70°34' E 022°06'7 5.4
2018-Feb-04 10:00N 70°39' E 021°51'4 3.5
2018-Feb-04 09:00N 70°42' E 021°44'0 0.7
2018-Feb-04 08:30N 70°42' E 021°45'1 1.1
2018-Feb-04 08:00N 70°43' E 021°46'2 3.9
2018-Feb-04 07:30N 70°44' E 021°51'3 5.5
2018-Feb-04 07:00N 70°46' E 021°56'0 0.5
2018-Feb-04 06:30N 70°46' E 021°56'1 2.4
2018-Feb-04 06:01N 70°47' E 021°59'0 0.7
2018-Feb-04 05:30N 70°47' E 021°59'0 0.4
2018-Feb-04 05:00N 70°47' E 021°60'0 0.7
2018-Feb-04 04:30N 70°47' E 022°01'6 5.4
2018-Feb-04 03:24N 70°41' E 021°56'3 8.0
2018-Feb-04 03:00N 70°38' E 021°55'1 1.1
2018-Feb-04 01:47N 70°38' E 021°59'0 0.0
2018-Feb-04 01:24N 70°38' E 021°59'0 0.0
2018-Feb-04 00:06N 70°38' E 021°59'0 0.0
2018-Feb-03 23:59N 70°38' E 021°59'0 0.0
2018-Feb-03 23:29N 70°38' E 021°59'0 0.0
2018-Feb-03 19:31N 70°38' E 021°59'0 0.0
2018-Feb-03 17:42N 70°38' E 021°59'0 0.0
2018-Feb-03 17:30N 70°38' E 021°59'0 0.0
2018-Feb-03 16:58N 70°38' E 021°59'5 4.6
2018-Feb-03 15:57N 70°35' E 022°10'2 1.7
2018-Feb-03 14:36N 70°35' E 022°17'0 0.0
2018-Feb-03 14:20N 70°35' E 022°17'8 6.3
2018-Feb-03 13:02N 70°38' E 021°53'1 6.7
2018-Feb-03 12:54N 70°38' E 021°52'3 6.8
2018-Feb-03 12:30N 70°41' E 021°47'1 2.9
2018-Feb-03 12:00N 70°42' E 021°46'0 0.7
2018-Feb-03 11:26N 70°42' E 021°45'0 0.9
2018-Feb-03 10:56N 70°42' E 021°45'1 1.0
2018-Feb-03 10:19N 70°42' E 021°43'  
2018-Jan-31 22:27N 70°38' E 021°59'0 0.0
2018-Jan-31 20:52N 70°38' E 021°59'0 0.2
2018-Jan-31 18:36N 70°38' E 021°58'1 8.1
2018-Jan-31 18:30N 70°37' E 021°58'4 6.2
2018-Jan-31 17:55N 70°35' E 022°07'2 1.3
2018-Jan-31 16:14N 70°35' E 022°14'2 8.2
2018-Jan-31 15:59N 70°35' E 022°08'  

Dump ship's entire track history